createdAt,value
2023-05-10T00:00:47.671Z,16.05
2023-05-10T00:03:14.406Z,15.60
2023-05-10T00:05:41.445Z,14.68
2023-05-10T00:08:08.141Z,14.40
2023-05-10T00:10:34.862Z,15.55
2023-05-10T00:13:01.517Z,14.32
2023-05-10T00:15:28.264Z,15.90
2023-05-10T00:17:54.991Z,14.88
2023-05-10T00:20:21.701Z,14.15
2023-05-10T00:22:48.323Z,16.35
2023-05-10T00:25:15.021Z,15.63
2023-05-10T00:27:41.644Z,18.42
2023-05-10T00:30:08.924Z,15.38
2023-05-10T00:32:35.571Z,18.83
2023-05-10T00:35:02.255Z,17.98
2023-05-10T00:37:28.913Z,16.45
2023-05-10T00:39:55.640Z,17.65
2023-05-10T00:42:22.347Z,16.95
2023-05-10T00:44:49.502Z,19.08
2023-05-10T00:47:16.858Z,18.42
2023-05-10T00:49:43.978Z,17.70
2023-05-10T00:52:11.468Z,19.45
2023-05-10T00:54:38.262Z,17.98
2023-05-10T00:57:05.205Z,19.10
2023-05-10T00:59:31.913Z,17.33
2023-05-10T01:01:59.057Z,21.20
2023-05-10T01:04:29.351Z,21.63
2023-05-10T01:06:57.553Z,18.30
2023-05-10T01:09:24.309Z,20.25
2023-05-10T01:11:51.558Z,22.42
2023-05-10T01:14:19.775Z,19.42
2023-05-10T01:16:48.441Z,16.92
2023-05-10T01:19:26.515Z,22.63
2023-05-10T01:21:59.576Z,15.30
2023-05-10T01:24:54.276Z,18.30
2023-05-10T01:27:48.525Z,15.65
2023-05-10T01:32:54.499Z,15.98
2023-05-10T01:35:33.521Z,15.30
2023-05-10T01:38:10.721Z,15.40
2023-05-10T01:40:41.869Z,16.40
2023-05-10T01:43:19.490Z,15.48
2023-05-10T01:46:11.985Z,15.43
2023-05-10T01:48:49.879Z,16.45
2023-05-10T01:51:19.745Z,17.13
2023-05-10T01:53:47.427Z,15.63
2023-05-10T01:56:14.949Z,15.90
2023-05-10T01:58:46.539Z,16.33
2023-05-10T02:01:13.712Z,14.50
2023-05-10T02:03:41.396Z,16.50
2023-05-10T02:06:08.902Z,16.27
2023-05-10T02:08:37.472Z,15.02
2023-05-10T02:11:04.902Z,16.58
2023-05-10T02:13:32.994Z,16.83
2023-05-10T02:16:00.294Z,16.55
2023-05-10T02:18:28.058Z,15.02
2023-05-10T02:20:56.520Z,17.92
2023-05-10T02:23:24.432Z,20.90
2023-05-10T02:25:52.638Z,15.77
2023-05-10T02:28:22.427Z,21.83
2023-05-10T02:30:49.369Z,14.15
2023-05-10T02:33:18.176Z,17.40
2023-05-10T02:35:46.689Z,15.15
2023-05-10T02:38:14.588Z,15.75
2023-05-10T02:40:42.289Z,14.00
2023-05-10T02:43:13.500Z,17.35
2023-05-10T02:45:41.302Z,16.35
2023-05-10T02:48:09.895Z,13.77
2023-05-10T02:50:38.005Z,16.20
2023-05-10T02:53:12.607Z,15.77
2023-05-10T02:55:41.912Z,13.95
2023-05-10T02:58:08.874Z,14.50
2023-05-10T03:00:37.294Z,14.40
2023-05-10T03:03:04.126Z,15.18
2023-05-10T03:05:30.794Z,15.60
2023-05-10T03:08:04.687Z,15.93
2023-05-10T03:10:32.639Z,14.65
2023-05-10T03:13:07.391Z,14.18
2023-05-10T03:15:53.466Z,12.70
2023-05-10T03:18:23.847Z,16.08
2023-05-10T03:20:52.314Z,15.80
2023-05-10T03:23:18.842Z,17.25
2023-05-10T03:25:48.163Z,17.30
2023-05-10T03:28:15.786Z,14.13
2023-05-10T03:30:44.090Z,11.32
2023-05-10T03:33:13.777Z,11.20
2023-05-10T03:35:43.258Z,11.75
2023-05-10T03:38:09.871Z,10.38
2023-05-10T03:40:36.557Z,12.55
2023-05-10T03:43:03.388Z,8.27
2023-05-10T03:45:30.089Z,9.23
2023-05-10T03:47:57.330Z,10.02
2023-05-10T03:50:24.998Z,9.82
2023-05-10T03:52:53.530Z,12.70
2023-05-10T03:55:21.436Z,12.68
2023-05-10T03:57:50.576Z,14.07
2023-05-10T04:00:17.908Z,12.13
2023-05-10T04:02:47.996Z,11.68
2023-05-10T04:05:19.836Z,14.27
2023-05-10T04:07:48.073Z,13.52
2023-05-10T04:10:15.108Z,15.50
2023-05-10T04:12:42.092Z,15.90
2023-05-10T04:15:09.414Z,14.90
2023-05-10T04:17:36.147Z,13.18
2023-05-10T04:20:02.937Z,14.73
2023-05-10T04:22:30.093Z,14.65
2023-05-10T04:24:56.759Z,13.75
2023-05-10T04:27:23.489Z,13.75
2023-05-10T04:29:50.171Z,11.98
2023-05-10T04:32:18.132Z,12.73
2023-05-10T04:34:45.169Z,13.27
2023-05-10T04:37:11.857Z,10.20
2023-05-10T04:39:40.311Z,9.43
2023-05-10T04:42:09.012Z,10.43
2023-05-10T04:44:35.811Z,12.88
2023-05-10T04:47:03.277Z,16.25
2023-05-10T04:49:30.672Z,12.70
2023-05-10T04:51:57.332Z,17.60
2023-05-10T04:54:24.003Z,14.88
2023-05-10T04:56:50.581Z,14.68
2023-05-10T04:59:17.250Z,15.52
2023-05-10T05:01:44.316Z,17.45
2023-05-10T05:04:11.027Z,17.17
2023-05-10T05:06:37.629Z,20.40
2023-05-10T05:09:04.299Z,18.42
2023-05-10T05:11:30.979Z,18.80
2023-05-10T05:13:59.907Z,21.00
2023-05-10T05:16:27.023Z,18.23
2023-05-10T05:18:53.770Z,17.25
2023-05-10T05:21:21.010Z,16.92
2023-05-10T05:23:47.632Z,19.25
2023-05-10T05:26:14.284Z,18.55
2023-05-10T05:28:40.968Z,17.45
2023-05-10T05:31:08.782Z,16.98
2023-05-10T05:33:35.689Z,21.70
2023-05-10T05:36:04.050Z,19.17
2023-05-10T05:38:30.655Z,19.23
2023-05-10T05:40:58.329Z,19.02
2023-05-10T05:43:25.678Z,17.80
2023-05-10T05:45:55.624Z,19.63
2023-05-10T05:48:22.261Z,22.63
2023-05-10T05:50:48.881Z,23.40
2023-05-10T05:53:15.536Z,21.98
2023-05-10T05:55:52.077Z,20.42
2023-05-10T05:58:18.680Z,19.92
2023-05-10T06:00:45.948Z,19.23
2023-05-10T06:03:12.726Z,19.52
2023-05-10T06:05:39.407Z,21.08
2023-05-10T06:08:06.293Z,19.42
2023-05-10T06:10:33.006Z,16.75
2023-05-10T06:12:59.729Z,16.77
2023-05-10T06:15:27.100Z,13.13
2023-05-10T06:17:53.859Z,19.33
2023-05-10T06:20:20.470Z,17.55
2023-05-10T06:22:47.299Z,17.25
2023-05-10T06:25:15.510Z,14.70
2023-05-10T06:27:42.468Z,17.90
2023-05-10T06:30:13.309Z,19.33
2023-05-10T06:32:40.661Z,16.33
2023-05-10T06:35:07.833Z,21.13
2023-05-10T06:37:35.168Z,16.52
2023-05-10T06:40:01.874Z,17.38
2023-05-10T06:42:28.701Z,13.55
2023-05-10T06:44:55.327Z,14.95
2023-05-10T06:47:22.928Z,13.90
2023-05-10T06:49:49.571Z,12.23
2023-05-10T06:52:16.236Z,16.13
2023-05-10T06:54:42.928Z,13.88
2023-05-10T06:57:23.384Z,12.43
2023-05-10T06:59:57.206Z,13.52
2023-05-10T07:02:23.962Z,12.60
2023-05-10T07:04:51.136Z,12.02
2023-05-10T07:07:17.875Z,9.57
2023-05-10T07:09:44.529Z,9.20
2023-05-10T07:12:13.402Z,9.13
2023-05-10T07:14:41.846Z,8.93
2023-05-10T07:17:08.517Z,8.15
2023-05-10T07:19:35.235Z,8.50
2023-05-10T07:22:02.018Z,10.18
2023-05-10T07:24:28.751Z,8.95
2023-05-10T07:26:55.506Z,7.82
2023-05-10T07:29:22.144Z,7.35
2023-05-10T07:31:48.806Z,10.18
2023-05-10T07:34:15.465Z,8.50
2023-05-10T07:36:42.129Z,9.18
2023-05-10T07:39:08.908Z,8.77
2023-05-10T07:41:36.014Z,8.20
2023-05-10T07:44:02.872Z,9.43
2023-05-10T07:46:29.587Z,8.85
2023-05-10T07:48:56.548Z,8.73
2023-05-10T07:51:23.262Z,9.65
2023-05-10T07:53:49.943Z,12.23
2023-05-10T07:56:27.548Z,11.52
2023-05-10T07:58:55.349Z,14.43
2023-05-10T08:01:22.045Z,16.60
2023-05-10T08:03:49.232Z,13.73
2023-05-10T08:06:16.471Z,13.13
2023-05-10T08:08:43.403Z,18.02
2023-05-10T08:11:10.072Z,10.80
2023-05-10T08:13:36.758Z,14.27
2023-05-10T08:16:03.427Z,10.38
2023-05-10T08:18:30.112Z,9.93
2023-05-10T08:20:56.896Z,9.77
2023-05-10T08:23:23.521Z,10.40
2023-05-10T08:25:50.191Z,10.98
2023-05-10T08:28:16.827Z,8.45
2023-05-10T08:30:43.525Z,7.70
2023-05-10T08:33:10.174Z,8.60
2023-05-10T08:35:36.922Z,7.85
2023-05-10T08:38:03.577Z,10.05
2023-05-10T08:40:30.279Z,11.68
2023-05-10T08:43:07.082Z,13.85
2023-05-10T08:45:36.471Z,13.05
2023-05-10T08:48:03.827Z,13.15
2023-05-10T08:50:30.806Z,8.93
2023-05-10T08:52:59.107Z,8.32
2023-05-10T08:55:25.811Z,7.00
2023-05-10T08:57:52.734Z,7.95
2023-05-10T09:00:20.251Z,7.28
2023-05-10T09:02:47.043Z,9.10
2023-05-10T09:05:13.920Z,9.07
2023-05-10T09:07:40.587Z,7.45
2023-05-10T09:10:07.845Z,8.25
2023-05-10T09:12:34.537Z,7.35
2023-05-10T09:15:01.570Z,9.02
2023-05-10T09:17:29.069Z,8.30
2023-05-10T09:20:05.032Z,8.02
2023-05-10T09:22:32.583Z,8.52
2023-05-10T09:25:13.555Z,7.47
2023-05-10T09:27:41.364Z,10.68
2023-05-10T09:30:08.971Z,7.30
2023-05-10T09:32:43.240Z,8.50
2023-05-10T09:35:11.021Z,9.55
2023-05-10T09:37:37.824Z,11.50
2023-05-10T09:40:08.606Z,11.90
2023-05-10T09:42:36.092Z,10.25
2023-05-10T09:45:06.986Z,9.05
2023-05-10T09:47:37.187Z,9.45
2023-05-10T09:50:05.217Z,9.65
2023-05-10T09:52:33.194Z,8.93
2023-05-10T09:54:59.975Z,8.43
2023-05-10T09:57:27.089Z,11.73
2023-05-10T09:59:55.332Z,11.15
2023-05-10T10:02:22.371Z,12.05
2023-05-10T10:04:50.694Z,10.40
2023-05-10T10:07:23.926Z,10.48
2023-05-10T10:09:50.810Z,11.38
2023-05-10T10:12:17.527Z,9.85
2023-05-10T10:14:44.374Z,10.07
2023-05-10T10:17:11.471Z,13.68
2023-05-10T10:19:38.331Z,9.55
2023-05-10T10:22:05.611Z,9.70
2023-05-10T10:24:32.551Z,11.93
2023-05-10T10:27:09.002Z,10.95
2023-05-10T10:29:42.510Z,11.70
2023-05-10T10:32:31.679Z,11.43
2023-05-10T10:34:58.600Z,12.02
2023-05-10T10:37:42.425Z,11.23
2023-05-10T10:40:25.778Z,11.25
2023-05-10T10:42:53.004Z,10.95
2023-05-10T10:45:20.116Z,9.77
2023-05-10T10:47:46.808Z,12.13
2023-05-10T10:50:17.350Z,11.32
2023-05-10T10:52:44.828Z,11.02
2023-05-10T10:55:13.670Z,10.25
2023-05-10T10:57:49.587Z,8.95
2023-05-10T11:00:22.328Z,8.82
2023-05-10T11:02:59.408Z,9.30
2023-05-10T11:05:36.586Z,8.68
2023-05-10T11:08:12.419Z,10.20
2023-05-10T11:10:40.470Z,9.40
2023-05-10T11:13:08.990Z,9.23
2023-05-10T11:15:36.303Z,11.13
2023-05-10T11:18:22.994Z,10.63
2023-05-10T11:21:01.346Z,11.57
2023-05-10T11:23:48.252Z,8.15
2023-05-10T11:26:15.197Z,7.93
2023-05-10T11:28:49.252Z,7.72
2023-05-10T11:31:17.517Z,7.97
2023-05-10T11:34:05.318Z,8.35
2023-05-10T11:36:35.746Z,9.00
2023-05-10T11:39:02.908Z,8.75
2023-05-10T11:41:30.964Z,9.55
2023-05-10T11:43:58.507Z,8.68
2023-05-10T11:46:27.971Z,8.60
2023-05-10T11:48:58.615Z,8.88
2023-05-10T11:51:26.191Z,11.88
2023-05-10T11:53:57.086Z,11.73
2023-05-10T11:56:24.358Z,11.02
2023-05-10T11:58:58.516Z,13.32
2023-05-10T12:01:26.842Z,13.85
2023-05-10T12:03:54.849Z,16.10
2023-05-10T12:06:22.369Z,12.13
2023-05-10T12:08:53.464Z,9.73
2023-05-10T12:11:21.917Z,10.63
2023-05-10T12:13:48.811Z,11.65
2023-05-10T12:16:20.875Z,14.77
2023-05-10T12:18:52.161Z,14.50
2023-05-10T12:21:20.665Z,14.60
2023-05-10T12:23:49.133Z,15.88
2023-05-10T12:26:15.931Z,17.55
2023-05-10T12:28:42.886Z,15.65
2023-05-10T12:31:09.555Z,14.50
2023-05-10T12:33:39.774Z,13.52
2023-05-10T12:36:07.658Z,16.52
2023-05-10T12:38:39.246Z,18.17
2023-05-10T12:41:08.253Z,14.93
2023-05-10T12:43:35.440Z,15.32
2023-05-10T12:46:15.626Z,17.55
2023-05-10T12:48:43.450Z,15.65
2023-05-10T12:51:14.094Z,19.08
2023-05-10T12:53:42.760Z,13.57
2023-05-10T12:56:11.208Z,17.75
2023-05-10T12:58:37.780Z,13.82
2023-05-10T13:01:06.145Z,13.68
2023-05-10T13:03:33.108Z,13.38
2023-05-10T13:05:59.823Z,15.02
2023-05-10T13:08:26.491Z,13.82
2023-05-10T13:10:53.095Z,13.00
2023-05-10T13:13:19.763Z,11.65
2023-05-10T13:15:46.427Z,12.57
2023-05-10T13:18:13.044Z,12.85
2023-05-10T13:20:39.764Z,14.48
2023-05-10T13:23:06.409Z,13.88
2023-05-10T13:25:33.022Z,16.73
2023-05-10T13:27:59.645Z,15.77
2023-05-10T13:30:26.192Z,15.93
2023-05-10T13:32:52.836Z,16.08
2023-05-10T13:35:19.595Z,14.10
2023-05-10T13:37:46.348Z,14.23
2023-05-10T13:40:13.132Z,18.48
2023-05-10T13:42:39.740Z,17.42
2023-05-10T13:45:06.908Z,19.05
2023-05-10T13:47:33.481Z,15.68
2023-05-10T13:50:00.119Z,16.85
2023-05-10T13:52:27.264Z,15.07
2023-05-10T13:54:55.970Z,18.00
2023-05-10T13:57:23.936Z,15.43
2023-05-10T13:59:51.193Z,14.75
2023-05-10T14:02:17.913Z,16.23
2023-05-10T14:04:44.541Z,14.05
2023-05-10T14:07:11.114Z,15.52
2023-05-10T14:09:37.686Z,14.50
2023-05-10T14:12:04.635Z,20.38
2023-05-10T14:14:31.494Z,12.85
2023-05-10T14:16:58.128Z,14.35
2023-05-10T14:19:24.721Z,16.08
2023-05-10T14:21:52.925Z,14.35
2023-05-10T14:24:19.599Z,16.38
2023-05-10T14:26:46.316Z,13.07
2023-05-10T14:29:12.921Z,14.68
2023-05-10T14:31:39.694Z,13.45
2023-05-10T14:34:06.711Z,14.30
2023-05-10T14:36:33.514Z,12.95
2023-05-10T14:39:00.292Z,13.35
2023-05-10T14:41:26.879Z,16.30
2023-05-10T14:43:54.467Z,14.45
2023-05-10T14:46:21.156Z,17.05
2023-05-10T14:48:47.777Z,13.45
2023-05-10T14:51:14.621Z,14.60
2023-05-10T14:53:41.218Z,16.30
2023-05-10T14:56:08.095Z,14.77
2023-05-10T14:58:34.848Z,17.58
2023-05-10T15:01:01.829Z,15.73
2023-05-10T15:03:29.218Z,15.52
2023-05-10T15:05:58.501Z,12.35
2023-05-10T15:08:28.021Z,16.20
2023-05-10T15:10:56.412Z,12.88
2023-05-10T15:13:23.060Z,12.60
2023-05-10T15:15:49.671Z,14.00
2023-05-10T15:18:16.366Z,12.80
2023-05-10T15:20:43.211Z,12.00
2023-05-10T15:23:09.857Z,13.25
2023-05-10T15:25:38.126Z,12.00
2023-05-10T15:28:05.399Z,11.85
2023-05-10T15:30:32.038Z,13.57
2023-05-10T15:32:58.880Z,11.93
2023-05-10T15:35:26.888Z,13.73
2023-05-10T15:37:53.534Z,13.10
2023-05-10T15:40:20.408Z,13.35
2023-05-10T15:42:47.029Z,14.68
2023-05-10T15:45:14.099Z,12.77
2023-05-10T15:47:40.882Z,13.60
2023-05-10T15:50:08.752Z,12.48
2023-05-10T15:52:36.096Z,16.83
2023-05-10T15:55:03.574Z,14.98
2023-05-10T15:57:30.730Z,13.73
2023-05-10T15:59:58.220Z,14.40
2023-05-10T16:02:25.052Z,15.60
2023-05-10T16:04:51.807Z,13.35
2023-05-10T16:07:18.498Z,13.95
2023-05-10T16:09:45.217Z,15.63
2023-05-10T16:12:12.015Z,14.68
2023-05-10T16:14:38.609Z,14.88
2023-05-10T16:17:05.452Z,16.45
2023-05-10T16:19:32.354Z,17.88
2023-05-10T16:21:59.185Z,21.55
2023-05-10T16:24:26.308Z,19.10
2023-05-10T16:26:53.232Z,17.08
2023-05-10T16:29:19.843Z,15.43
2023-05-10T16:31:46.954Z,14.95
2023-05-10T16:34:13.649Z,14.80
2023-05-10T16:36:40.441Z,19.25
2023-05-10T16:39:07.084Z,19.27
2023-05-10T16:41:34.523Z,13.88
2023-05-10T16:44:01.807Z,13.00
2023-05-10T16:46:28.544Z,9.07
2023-05-10T16:48:55.752Z,14.88
2023-05-10T16:51:22.681Z,10.40
2023-05-10T16:53:49.346Z,12.50
2023-05-10T16:56:18.334Z,11.25
2023-05-10T16:58:45.017Z,14.18
2023-05-10T17:01:12.163Z,15.52
2023-05-10T17:03:38.976Z,11.73
2023-05-10T17:06:06.205Z,14.93
2023-05-10T17:08:33.408Z,15.63
2023-05-10T17:11:03.926Z,12.07
2023-05-10T17:13:31.077Z,16.77
2023-05-10T17:15:58.231Z,15.85
2023-05-10T17:18:26.562Z,10.80
2023-05-10T17:20:53.323Z,17.50
2023-05-10T17:23:19.985Z,16.67
2023-05-10T17:25:46.797Z,13.20
2023-05-10T17:28:13.395Z,15.65
2023-05-10T17:30:40.001Z,14.02
2023-05-10T17:33:06.776Z,17.77
2023-05-10T17:35:34.123Z,13.20
2023-05-10T17:38:00.883Z,15.10
2023-05-10T17:40:27.622Z,19.77
2023-05-10T17:42:54.254Z,23.92
2023-05-10T17:45:21.037Z,25.15
2023-05-10T17:47:47.792Z,12.52
2023-05-10T17:50:14.526Z,10.70
2023-05-10T17:52:41.241Z,11.73
2023-05-10T17:55:08.630Z,12.00
2023-05-10T17:57:38.032Z,13.00
2023-05-10T18:00:06.579Z,15.18
2023-05-10T18:02:33.318Z,14.98
2023-05-10T18:05:01.425Z,10.93
2023-05-10T18:07:30.015Z,13.77
2023-05-10T18:09:57.491Z,12.13
2023-05-10T18:12:24.593Z,13.95
2023-05-10T18:14:51.487Z,14.98
2023-05-10T18:17:18.317Z,14.80
2023-05-10T18:19:44.922Z,11.65
2023-05-10T18:22:11.713Z,15.05
2023-05-10T18:24:39.869Z,13.48
2023-05-10T18:27:08.821Z,14.70
2023-05-10T18:29:36.647Z,13.13
2023-05-10T18:32:03.275Z,14.15
2023-05-10T18:34:29.853Z,11.30
2023-05-10T18:36:56.620Z,11.70
2023-05-10T18:39:24.238Z,13.23
2023-05-10T18:41:50.939Z,13.88
2023-05-10T18:44:18.838Z,14.68
2023-05-10T18:46:45.596Z,13.35
2023-05-10T18:49:12.186Z,12.18
2023-05-10T18:51:38.851Z,11.15
2023-05-10T18:54:05.509Z,14.38
2023-05-10T18:56:32.127Z,15.65
2023-05-10T18:58:58.724Z,9.35
2023-05-10T19:01:25.518Z,13.43
2023-05-10T19:03:52.279Z,11.80
2023-05-10T19:06:18.953Z,10.70
2023-05-10T19:08:45.577Z,12.75
2023-05-10T19:11:12.472Z,9.80
2023-05-10T19:13:39.112Z,14.40
2023-05-10T19:16:10.210Z,10.77
2023-05-10T19:18:38.880Z,10.75
2023-05-10T19:21:09.471Z,8.48
2023-05-10T19:23:41.606Z,13.07
2023-05-10T19:26:09.521Z,9.55
2023-05-10T19:28:36.597Z,9.90
2023-05-10T19:31:03.481Z,10.40
2023-05-10T19:33:30.285Z,11.27
2023-05-10T19:35:56.983Z,8.00
2023-05-10T19:38:24.183Z,8.45
2023-05-10T19:40:57.446Z,10.48
2023-05-10T19:43:27.773Z,9.68
2023-05-10T19:45:55.399Z,11.27
2023-05-10T19:48:22.083Z,9.02
2023-05-10T19:50:48.699Z,11.05
2023-05-10T19:53:15.437Z,9.25
2023-05-10T19:55:42.131Z,11.57
2023-05-10T19:58:08.883Z,11.98
2023-05-10T20:00:35.839Z,9.98
2023-05-10T20:03:03.110Z,9.32
2023-05-10T20:05:29.825Z,8.68
2023-05-10T20:07:56.440Z,12.23
2023-05-10T20:10:25.173Z,8.50
2023-05-10T20:12:53.895Z,12.02
2023-05-10T20:15:22.885Z,15.00
2023-05-10T20:17:51.941Z,21.35
2023-05-10T20:20:20.103Z,13.85
2023-05-10T20:22:47.782Z,12.80
2023-05-10T20:25:14.725Z,12.10
2023-05-10T20:27:41.415Z,16.30
2023-05-10T20:30:08.438Z,14.32
2023-05-10T20:32:35.405Z,11.25
2023-05-10T20:35:02.284Z,12.82
2023-05-10T20:37:29.099Z,12.45
2023-05-10T20:39:56.452Z,13.45
2023-05-10T20:42:23.171Z,12.93
2023-05-10T20:44:50.265Z,14.25
2023-05-10T20:47:17.489Z,13.25
2023-05-10T20:49:44.163Z,16.65
2023-05-10T20:52:10.871Z,13.00
2023-05-10T20:54:37.510Z,12.93
2023-05-10T20:57:04.112Z,18.52
2023-05-10T20:59:30.716Z,16.20
2023-05-10T21:01:57.705Z,16.48
2023-05-10T21:04:25.504Z,15.27
2023-05-10T21:06:53.064Z,16.50
2023-05-10T21:09:19.777Z,16.92
2023-05-10T21:11:46.655Z,16.23
2023-05-10T21:14:13.335Z,15.27
2023-05-10T21:16:40.111Z,14.90
2023-05-10T21:19:07.659Z,16.23
2023-05-10T21:21:34.676Z,15.63
2023-05-10T21:24:01.332Z,15.38
2023-05-10T21:26:28.693Z,16.13
2023-05-10T21:28:55.481Z,18.80
2023-05-10T21:31:22.127Z,16.65
2023-05-10T21:33:48.841Z,18.35
2023-05-10T21:36:15.536Z,17.08
2023-05-10T21:38:44.390Z,18.17
2023-05-10T21:41:11.241Z,15.38
2023-05-10T21:43:37.940Z,15.38
2023-05-10T21:46:04.766Z,18.95
2023-05-10T21:48:31.463Z,21.70
2023-05-10T21:50:58.772Z,16.75
2023-05-10T21:53:25.379Z,18.48
2023-05-10T21:55:52.215Z,15.88
2023-05-10T21:58:18.926Z,14.27
2023-05-10T22:00:45.570Z,20.30
2023-05-10T22:03:12.310Z,15.50
2023-05-10T22:05:39.491Z,16.65
2023-05-10T22:08:06.916Z,16.00
2023-05-10T22:10:33.799Z,18.55
2023-05-10T22:13:00.549Z,32.50
2023-05-10T22:15:27.950Z,28.80
2023-05-10T22:17:54.666Z,22.90
2023-05-10T22:20:21.322Z,22.13
2023-05-10T22:22:47.958Z,19.80
2023-05-10T22:25:14.559Z,17.75
2023-05-10T22:27:41.427Z,16.50
2023-05-10T22:30:08.676Z,16.90
2023-05-10T22:32:35.321Z,18.77
2023-05-10T22:35:02.293Z,15.82
2023-05-10T22:37:28.891Z,15.45
2023-05-10T22:39:55.597Z,17.50
2023-05-10T22:42:22.224Z,16.40
2023-05-10T22:44:48.835Z,17.27
2023-05-10T22:47:16.400Z,18.08
2023-05-10T22:49:43.100Z,16.15
2023-05-10T22:52:09.724Z,17.73
2023-05-10T22:54:36.539Z,16.30
2023-05-10T22:57:03.450Z,17.73
2023-05-10T22:59:30.138Z,17.98
2023-05-10T23:01:56.770Z,18.55
2023-05-10T23:04:23.442Z,16.40
2023-05-10T23:06:50.097Z,19.95
2023-05-10T23:09:16.996Z,17.15
2023-05-10T23:11:43.749Z,17.30
2023-05-10T23:14:10.404Z,17.17
2023-05-10T23:16:37.092Z,19.83
2023-05-10T23:19:03.793Z,21.10
2023-05-10T23:21:32.210Z,19.65
2023-05-10T23:23:59.138Z,17.65
2023-05-10T23:26:25.907Z,21.48
2023-05-10T23:28:52.555Z,19.13
2023-05-10T23:31:19.281Z,22.40
2023-05-10T23:33:45.920Z,24.73
2023-05-10T23:36:12.584Z,24.75
2023-05-10T23:38:39.460Z,21.73
2023-05-10T23:41:06.203Z,25.67
2023-05-10T23:43:32.873Z,21.90
2023-05-10T23:45:59.682Z,23.67
2023-05-10T23:48:26.368Z,25.55
2023-05-10T23:50:53.021Z,25.98
2023-05-10T23:53:19.716Z,27.23
2023-05-10T23:55:46.508Z,29.35
2023-05-10T23:58:13.190Z,27.88
